sensor_id;sensor_type;location;lat;lon;timestamp;pressure;altitude;pressure_sealevel;temperature;humidity
52625;BME280;38519;52.540;13.410;2023-08-30T00:00:55;45574.84;;;-146.17;100.00
52625;BME280;38519;52.540;13.410;2023-08-30T00:03:21;45578.78;;;-146.17;100.00
52625;BME280;38519;52.540;13.410;2023-08-30T00:05:47;45557.03;;;-146.17;100.00
52625;BME280;38519;52.540;13.410;2023-08-30T00:08:13;45570.88;;;-146.17;100.00
52625;BME280;38519;52.540;13.410;2023-08-30T00:10:46;45574.84;;;-146.17;100.00
52625;BME280;38519;52.540;13.410;2023-08-30T00:13:11;45584.72;;;-146.17;100.00
52625;BME280;38519;52.540;13.410;2023-08-30T00:15:37;45596.56;;;-146.17;100.00
52625;BME280;38519;52.540;13.410;2023-08-30T00:18:02;45562.97;;;-146.17;100.00
52625;BME280;38519;52.540;13.410;2023-08-30T00:20:27;45584.72;;;-146.17;100.00
52625;BME280;38519;52.540;13.410;2023-08-30T00:22:53;45602.50;;;-146.17;100.00
52625;BME280;38519;52.540;13.410;2023-08-30T00:25:19;45562.97;;;-146.17;100.00
52625;BME280;38519;52.540;13.410;2023-08-30T00:27:47;45584.72;;;-146.17;100.00
52625;BME280;38519;52.540;13.410;2023-08-30T00:30:13;45568.91;;;-146.17;100.00
52625;BME280;38519;52.540;13.410;2023-08-30T00:32:38;45561.00;;;-146.17;100.00
52625;BME280;38519;52.540;13.410;2023-08-30T00:35:03;45588.66;;;-146.17;100.00
52625;BME280;38519;52.540;13.410;2023-08-30T00:37:30;45590.66;;;-146.17;100.00
52625;BME280;38519;52.540;13.410;2023-08-30T00:39:56;45612.38;;;-146.17;100.00
52625;BME280;38519;52.540;13.410;2023-08-30T00:42:21;45588.66;;;-146.17;100.00
52625;BME280;38519;52.540;13.410;2023-08-30T00:44:47;45588.66;;;-146.17;100.00
52625;BME280;38519;52.540;13.410;2023-08-30T00:47:13;45566.94;;;-146.17;100.00
52625;BME280;38519;52.540;13.410;2023-08-30T00:49:39;45584.72;;;-146.17;100.00
52625;BME280;38519;52.540;13.410;2023-08-30T00:52:06;45606.47;;;-146.17;100.00
52625;BME280;38519;52.540;13.410;2023-08-30T00:54:32;45570.88;;;-146.17;100.00
52625;BME280;38519;52.540;13.410;2023-08-30T00:57:00;45588.66;;;-146.17;100.00
52625;BME280;38519;52.540;13.410;2023-08-30T00:59:25;45557.03;;;-146.17;100.00
52625;BME280;38519;52.540;13.410;2023-08-30T01:01:51;45606.47;;;-146.17;100.00
52625;BME280;38519;52.540;13.410;2023-08-30T01:04:19;45580.75;;;-146.17;100.00
52625;BME280;38519;52.540;13.410;2023-08-30T01:06:44;45566.94;;;-146.17;100.00
52625;BME280;38519;52.540;13.410;2023-08-30T01:09:09;45586.69;;;-146.17;100.00
52625;BME280;38519;52.540;13.410;2023-08-30T01:14:07;45614.38;;;-146.17;100.00
52625;BME280;38519;52.540;13.410;2023-08-30T01:16:35;45578.78;;;-146.17;100.00
52625;BME280;38519;52.540;13.410;2023-08-30T01:19:04;45600.53;;;-146.17;100.00
52625;BME280;38519;52.540;13.410;2023-08-30T01:21:48;45572.84;;;-146.17;100.00
52625;BME280;38519;52.540;13.410;2023-08-30T01:24:32;45588.66;;;-146.17;100.00
52625;BME280;38519;52.540;13.410;2023-08-30T01:29:26;45598.56;;;-146.17;100.00
52625;BME280;38519;52.540;13.410;2023-08-30T01:31:52;45586.69;;;-146.17;100.00
52625;BME280;38519;52.540;13.410;2023-08-30T01:34:18;45600.53;;;-146.17;100.00
52625;BME280;38519;52.540;13.410;2023-08-30T01:36:44;45608.44;;;-146.17;100.00
52625;BME280;38519;52.540;13.410;2023-08-30T01:42:12;45590.66;;;-146.17;100.00
52625;BME280;38519;52.540;13.410;2023-08-30T01:44:40;45600.53;;;-146.17;100.00
52625;BME280;38519;52.540;13.410;2023-08-30T01:47:06;45590.66;;;-146.17;100.00
52625;BME280;38519;52.540;13.410;2023-08-30T01:49:32;45608.44;;;-146.17;100.00
52625;BME280;38519;52.540;13.410;2023-08-30T01:51:59;45592.63;;;-146.17;100.00
52625;BME280;38519;52.540;13.410;2023-08-30T01:54:25;45608.44;;;-146.17;100.00
52625;BME280;38519;52.540;13.410;2023-08-30T01:56:51;45555.06;;;-146.17;100.00
52625;BME280;38519;52.540;13.410;2023-08-30T01:59:16;45557.03;;;-146.17;100.00
52625;BME280;38519;52.540;13.410;2023-08-30T02:01:41;45578.78;;;-146.17;100.00
52625;BME280;38519;52.540;13.410;2023-08-30T02:04:07;45580.75;;;-146.17;100.00
52625;BME280;38519;52.540;13.410;2023-08-30T02:06:36;45576.81;;;-146.17;100.00
52625;BME280;38519;52.540;13.410;2023-08-30T02:11:35;45606.47;;;-146.17;100.00
52625;BME280;38519;52.540;13.410;2023-08-30T02:14:01;45624.25;;;-146.17;100.00
52625;BME280;38519;52.540;13.410;2023-08-30T02:16:28;45628.19;;;-146.17;100.00
52625;BME280;38519;52.540;13.410;2023-08-30T02:18:53;45600.53;;;-146.17;100.00
52625;BME280;38519;52.540;13.410;2023-08-30T02:21:19;45564.94;;;-146.17;100.00
52625;BME280;38519;52.540;13.410;2023-08-30T02:23:49;45562.97;;;-146.17;100.00
52625;BME280;38519;52.540;13.410;2023-08-30T02:26:17;45578.78;;;-146.17;100.00
52625;BME280;38519;52.540;13.410;2023-08-30T02:28:43;45590.66;;;-146.17;100.00
52625;BME280;38519;52.540;13.410;2023-08-30T02:31:08;45620.28;;;-146.17;100.00
52625;BME280;38519;52.540;13.410;2023-08-30T02:33:34;45592.63;;;-146.17;100.00
52625;BME280;38519;52.540;13.410;2023-08-30T02:35:59;45612.38;;;-146.17;100.00
52625;BME280;38519;52.540;13.410;2023-08-30T02:38:24;45598.56;;;-146.17;100.00
52625;BME280;38519;52.540;13.410;2023-08-30T02:40:50;45608.44;;;-146.17;100.00
52625;BME280;38519;52.540;13.410;2023-08-30T02:43:16;45628.19;;;-146.17;100.00
52625;BME280;38519;52.540;13.410;2023-08-30T02:45:42;45622.25;;;-146.17;100.00
52625;BME280;38519;52.540;13.410;2023-08-30T02:48:07;45612.38;;;-146.17;100.00
52625;BME280;38519;52.540;13.410;2023-08-30T02:50:34;45616.34;;;-146.17;100.00
52625;BME280;38519;52.540;13.410;2023-08-30T02:52:59;45602.50;;;-146.17;100.00
52625;BME280;38519;52.540;13.410;2023-08-30T02:55:24;45618.31;;;-146.17;100.00
52625;BME280;38519;52.540;13.410;2023-08-30T02:57:50;45602.50;;;-146.17;100.00
52625;BME280;38519;52.540;13.410;2023-08-30T03:00:16;45608.44;;;-146.17;100.00
52625;BME280;38519;52.540;13.410;2023-08-30T03:02:41;45533.31;;;-146.17;100.00
52625;BME280;38519;52.540;13.410;2023-08-30T03:05:07;45592.63;;;-146.17;100.00
52625;BME280;38519;52.540;13.410;2023-08-30T03:07:32;45620.28;;;-146.17;100.00
52625;BME280;38519;52.540;13.410;2023-08-30T03:09:57;45596.56;;;-146.17;100.00
52625;BME280;38519;52.540;13.410;2023-08-30T03:12:23;45608.44;;;-146.17;100.00
52625;BME280;38519;52.540;13.410;2023-08-30T03:14:48;45604.47;;;-146.17;100.00
52625;BME280;38519;52.540;13.410;2023-08-30T03:17:14;45596.56;;;-146.17;100.00
52625;BME280;38519;52.540;13.410;2023-08-30T03:19:39;45616.34;;;-146.17;100.00
52625;BME280;38519;52.540;13.410;2023-08-30T03:22:04;45614.38;;;-146.17;100.00
52625;BME280;38519;52.540;13.410;2023-08-30T03:24:30;45578.78;;;-146.17;100.00
52625;BME280;38519;52.540;13.410;2023-08-30T03:26:57;45584.72;;;-146.17;100.00
52625;BME280;38519;52.540;13.410;2023-08-30T03:29:22;45626.22;;;-146.17;100.00
52625;BME280;38519;52.540;13.410;2023-08-30T03:31:48;45612.38;;;-146.17;100.00
52625;BME280;38519;52.540;13.410;2023-08-30T03:34:13;45600.53;;;-146.17;100.00
52625;BME280;38519;52.540;13.410;2023-08-30T03:36:40;45576.81;;;-146.17;100.00
52625;BME280;38519;52.540;13.410;2023-08-30T03:39:05;45614.38;;;-146.17;100.00
52625;BME280;38519;52.540;13.410;2023-08-30T03:41:31;45604.47;;;-146.17;100.00
52625;BME280;38519;52.540;13.410;2023-08-30T03:43:57;45626.22;;;-146.17;100.00
52625;BME280;38519;52.540;13.410;2023-08-30T03:46:24;45602.50;;;-146.17;100.00
52625;BME280;38519;52.540;13.410;2023-08-30T03:48:49;45628.19;;;-146.17;100.00
52625;BME280;38519;52.540;13.410;2023-08-30T03:51:16;45612.38;;;-146.17;100.00
52625;BME280;38519;52.540;13.410;2023-08-30T03:53:41;45624.25;;;-146.17;100.00
52625;BME280;38519;52.540;13.410;2023-08-30T03:56:07;45649.94;;;-146.17;100.00
52625;BME280;38519;52.540;13.410;2023-08-30T03:58:32;45618.31;;;-146.17;100.00
52625;BME280;38519;52.540;13.410;2023-08-30T04:00:58;45600.53;;;-146.17;100.00
52625;BME280;38519;52.540;13.410;2023-08-30T04:03:24;45628.19;;;-146.17;100.00
52625;BME280;38519;52.540;13.410;2023-08-30T04:05:54;45624.25;;;-146.17;100.00
52625;BME280;38519;52.540;13.410;2023-08-30T04:08:24;45600.53;;;-146.17;100.00
52625;BME280;38519;52.540;13.410;2023-08-30T04:10:51;45578.78;;;-146.17;100.00
52625;BME280;38519;52.540;13.410;2023-08-30T04:13:17;45626.22;;;-146.17;100.00
52625;BME280;38519;52.540;13.410;2023-08-30T04:15:42;45600.53;;;-146.17;100.00
52625;BME280;38519;52.540;13.410;2023-08-30T04:18:08;45616.34;;;-146.17;100.00
52625;BME280;38519;52.540;13.410;2023-08-30T04:20:33;45606.47;;;-146.17;100.00
52625;BME280;38519;52.540;13.410;2023-08-30T04:22:59;45604.47;;;-146.17;100.00
52625;BME280;38519;52.540;13.410;2023-08-30T04:25:27;45626.22;;;-146.17;100.00
52625;BME280;38519;52.540;13.410;2023-08-30T04:27:53;45632.16;;;-146.17;100.00
52625;BME280;38519;52.540;13.410;2023-08-30T04:30:18;45600.53;;;-146.17;100.00
52625;BME280;38519;52.540;13.410;2023-08-30T04:32:43;45564.94;;;-146.17;100.00
52625;BME280;38519;52.540;13.410;2023-08-30T04:35:10;45588.66;;;-146.17;100.00
52625;BME280;38519;52.540;13.410;2023-08-30T04:37:36;45624.25;;;-146.17;100.00
52625;BME280;38519;52.540;13.410;2023-08-30T04:40:03;45584.72;;;-146.17;100.00
52625;BME280;38519;52.540;13.410;2023-08-30T04:42:29;45588.66;;;-146.17;100.00
52625;BME280;38519;52.540;13.410;2023-08-30T04:44:54;45624.25;;;-146.17;100.00
52625;BME280;38519;52.540;13.410;2023-08-30T04:47:21;45630.16;;;-146.17;100.00
52625;BME280;38519;52.540;13.410;2023-08-30T04:49:53;45604.47;;;-146.17;100.00
52625;BME280;38519;52.540;13.410;2023-08-30T04:52:18;45602.50;;;-146.17;100.00
52625;BME280;38519;52.540;13.410;2023-08-30T04:54:45;45606.47;;;-146.17;100.00
52625;BME280;38519;52.540;13.410;2023-08-30T04:57:11;45624.25;;;-146.17;100.00
52625;BME280;38519;52.540;13.410;2023-08-30T04:59:41;45608.44;;;-146.17;100.00
52625;BME280;38519;52.540;13.410;2023-08-30T05:02:07;45604.47;;;-146.17;100.00
52625;BME280;38519;52.540;13.410;2023-08-30T05:04:32;45618.31;;;-146.17;100.00
52625;BME280;38519;52.540;13.410;2023-08-30T05:06:57;45588.66;;;-146.17;100.00
52625;BME280;38519;52.540;13.410;2023-08-30T05:09:23;45588.66;;;-146.17;100.00
52625;BME280;38519;52.540;13.410;2023-08-30T05:11:50;45636.09;;;-146.17;100.00
52625;BME280;38519;52.540;13.410;2023-08-30T05:14:16;45586.69;;;-146.17;100.00
52625;BME280;38519;52.540;13.410;2023-08-30T05:16:41;45606.47;;;-146.17;100.00
52625;BME280;38519;52.540;13.410;2023-08-30T05:19:07;45614.38;;;-146.17;100.00
52625;BME280;38519;52.540;13.410;2023-08-30T05:21:32;45647.97;;;-146.17;100.00
52625;BME280;38519;52.540;13.410;2023-08-30T05:23:57;45594.59;;;-146.17;100.00
52625;BME280;38519;52.540;13.410;2023-08-30T05:26:23;45626.22;;;-146.17;100.00
52625;BME280;38519;52.540;13.410;2023-08-30T05:28:48;45612.38;;;-146.17;100.00
52625;BME280;38519;52.540;13.410;2023-08-30T05:31:13;45592.63;;;-146.17;100.00
52625;BME280;38519;52.540;13.410;2023-08-30T05:33:39;45572.84;;;-146.17;100.00
52625;BME280;38519;52.540;13.410;2023-08-30T05:36:04;45584.72;;;-146.17;100.00
52625;BME280;38519;52.540;13.410;2023-08-30T05:38:30;45568.91;;;-146.17;100.00
52625;BME280;38519;52.540;13.410;2023-08-30T05:40:55;45598.56;;;-146.17;100.00
52625;BME280;38519;52.540;13.410;2023-08-30T05:43:22;45604.47;;;-146.17;100.00
52625;BME280;38519;52.540;13.410;2023-08-30T05:45:47;45610.41;;;-146.17;100.00
52625;BME280;38519;52.540;13.410;2023-08-30T05:48:13;45618.31;;;-146.17;100.00
52625;BME280;38519;52.540;13.410;2023-08-30T05:50:38;45568.91;;;-146.17;100.00
52625;BME280;38519;52.540;13.410;2023-08-30T05:53:04;45600.53;;;-146.17;100.00
52625;BME280;38519;52.540;13.410;2023-08-30T05:55:30;45574.84;;;-146.17;100.00
52625;BME280;38519;52.540;13.410;2023-08-30T05:57:55;45572.84;;;-146.17;100.00
52625;BME280;38519;52.540;13.410;2023-08-30T06:00:21;45602.50;;;-146.17;100.00
52625;BME280;38519;52.540;13.410;2023-08-30T06:02:46;45598.56;;;-146.17;100.00
52625;BME280;38519;52.540;13.410;2023-08-30T06:05:11;45612.38;;;-146.17;100.00
52625;BME280;38519;52.540;13.410;2023-08-30T06:07:37;45564.94;;;-146.17;100.00
52625;BME280;38519;52.540;13.410;2023-08-30T06:10:02;45608.44;;;-146.17;100.00
52625;BME280;38519;52.540;13.410;2023-08-30T06:12:29;45584.72;;;-146.17;100.00
52625;BME280;38519;52.540;13.410;2023-08-30T06:14:54;45572.84;;;-146.17;100.00
52625;BME280;38519;52.540;13.410;2023-08-30T06:17:20;45586.69;;;-146.17;100.00
52625;BME280;38519;52.540;13.410;2023-08-30T06:19:45;45606.47;;;-146.17;100.00
52625;BME280;38519;52.540;13.410;2023-08-30T06:22:11;45572.84;;;-146.17;100.00
52625;BME280;38519;52.540;13.410;2023-08-30T06:24:37;45578.78;;;-146.17;100.00
52625;BME280;38519;52.540;13.410;2023-08-30T06:27:02;45592.63;;;-146.17;100.00
52625;BME280;38519;52.540;13.410;2023-08-30T06:29:28;45606.47;;;-146.17;100.00
52625;BME280;38519;52.540;13.410;2023-08-30T06:31:55;45604.47;;;-146.17;100.00
52625;BME280;38519;52.540;13.410;2023-08-30T06:34:20;45551.13;;;-146.17;100.00
52625;BME280;38519;52.540;13.410;2023-08-30T06:36:45;45561.00;;;-146.17;100.00
52625;BME280;38519;52.540;13.410;2023-08-30T06:39:12;45566.94;;;-146.17;100.00
52625;BME280;38519;52.540;13.410;2023-08-30T06:41:38;45568.91;;;-146.17;100.00
52625;BME280;38519;52.540;13.410;2023-08-30T06:44:03;45553.09;;;-146.17;100.00
52625;BME280;38519;52.540;13.410;2023-08-30T06:46:29;45570.88;;;-146.17;100.00
52625;BME280;38519;52.540;13.410;2023-08-30T06:48:54;45549.13;;;-146.17;100.00
52625;BME280;38519;52.540;13.410;2023-08-30T06:51:20;45541.22;;;-146.17;100.00
52625;BME280;38519;52.540;13.410;2023-08-30T06:53:45;45555.06;;;-146.17;100.00
52625;BME280;38519;52.540;13.410;2023-08-30T06:56:13;45559.03;;;-146.17;100.00
52625;BME280;38519;52.540;13.410;2023-08-30T06:58:38;45535.31;;;-146.17;100.00
52625;BME280;38519;52.540;13.410;2023-08-30T07:01:04;45561.00;;;-146.17;100.00
52625;BME280;38519;52.540;13.410;2023-08-30T07:03:29;45537.28;;;-146.17;100.00
52625;BME280;38519;52.540;13.410;2023-08-30T07:05:54;45564.94;;;-146.17;100.00
52625;BME280;38519;52.540;13.410;2023-08-30T07:08:21;45537.28;;;-146.17;100.00
52625;BME280;38519;52.540;13.410;2023-08-30T07:10:47;45541.22;;;-146.17;100.00
52625;BME280;38519;52.540;13.410;2023-08-30T07:13:12;45539.25;;;-146.17;100.00
52625;BME280;38519;52.540;13.410;2023-08-30T07:15:38;45553.09;;;-146.17;100.00
52625;BME280;38519;52.540;13.410;2023-08-30T07:18:05;45537.28;;;-146.17;100.00
52625;BME280;38519;52.540;13.410;2023-08-30T07:20:30;45535.31;;;-146.17;100.00
52625;BME280;38519;52.540;13.410;2023-08-30T07:22:56;45551.13;;;-146.17;100.00
52625;BME280;38519;52.540;13.410;2023-08-30T07:25:21;45523.44;;;-146.17;100.00
52625;BME280;38519;52.540;13.410;2023-08-30T07:27:47;45529.38;;;-146.17;100.00
52625;BME280;38519;52.540;13.410;2023-08-30T07:30:12;45547.16;;;-146.17;100.00
52625;BME280;38519;52.540;13.410;2023-08-30T07:32:37;45570.88;;;-146.17;100.00
52625;BME280;38519;52.540;13.410;2023-08-30T07:35:03;45531.34;;;-146.17;100.00
52625;BME280;38519;52.540;13.410;2023-08-30T07:37:29;45527.41;;;-146.17;100.00
52625;BME280;38519;52.540;13.410;2023-08-30T07:39:54;45549.13;;;-146.17;100.00
52625;BME280;38519;52.540;13.410;2023-08-30T07:42:20;45574.84;;;-146.17;100.00
52625;BME280;38519;52.540;13.410;2023-08-30T07:44:46;45527.41;;;-146.17;100.00
52625;BME280;38519;52.540;13.410;2023-08-30T07:47:11;45551.13;;;-146.17;100.00
52625;BME280;38519;52.540;13.410;2023-08-30T07:49:37;45557.03;;;-146.17;100.00
52625;BME280;38519;52.540;13.410;2023-08-30T07:52:02;45521.47;;;-146.17;100.00
52625;BME280;38519;52.540;13.410;2023-08-30T07:54:28;45525.41;;;-146.17;100.00
52625;BME280;38519;52.540;13.410;2023-08-30T07:56:56;45527.41;;;-146.17;100.00
52625;BME280;38519;52.540;13.410;2023-08-30T07:59:21;45547.16;;;-146.17;100.00
52625;BME280;38519;52.540;13.410;2023-08-30T08:01:47;45529.38;;;-146.17;100.00
52625;BME280;38519;52.540;13.410;2023-08-30T08:04:13;45543.22;;;-146.17;100.00
52625;BME280;38519;52.540;13.410;2023-08-30T08:06:38;45531.34;;;-146.17;100.00
52625;BME280;38519;52.540;13.410;2023-08-30T08:09:04;45527.41;;;-146.17;100.00
52625;BME280;38519;52.540;13.410;2023-08-30T08:11:30;45493.81;;;-146.17;100.00
52625;BME280;38519;52.540;13.410;2023-08-30T08:13:59;45559.03;;;-146.17;100.00
52625;BME280;38519;52.540;13.410;2023-08-30T08:16:24;45535.31;;;-146.17;100.00
52625;BME280;38519;52.540;13.410;2023-08-30T08:18:49;45527.41;;;-146.17;100.00
52625;BME280;38519;52.540;13.410;2023-08-30T08:21:16;45533.31;;;-146.17;100.00
52625;BME280;38519;52.540;13.410;2023-08-30T08:23:43;45517.53;;;-146.17;100.00
52625;BME280;38519;52.540;13.410;2023-08-30T08:26:09;45535.31;;;-146.17;100.00
52625;BME280;38519;52.540;13.410;2023-08-30T08:28:34;45531.34;;;-146.17;100.00
52625;BME280;38519;52.540;13.410;2023-08-30T08:31:00;45499.72;;;-146.17;100.00
52625;BME280;38519;52.540;13.410;2023-08-30T08:33:25;45531.34;;;-146.17;100.00
52625;BME280;38519;52.540;13.410;2023-08-30T08:35:50;45539.25;;;-146.17;100.00
52625;BME280;38519;52.540;13.410;2023-08-30T08:38:18;45531.34;;;-146.17;100.00
52625;BME280;38519;52.540;13.410;2023-08-30T08:40:43;45493.81;;;-146.17;100.00
52625;BME280;38519;52.540;13.410;2023-08-30T08:43:12;45472.06;;;-146.17;100.00
52625;BME280;38519;52.540;13.410;2023-08-30T08:45:37;45505.66;;;-146.17;100.00
52625;BME280;38519;52.540;13.410;2023-08-30T08:48:07;45464.16;;;-146.17;100.00
52625;BME280;38519;52.540;13.410;2023-08-30T08:50:34;45499.72;;;-146.17;100.00
52625;BME280;38519;52.540;13.410;2023-08-30T08:53:03;45489.84;;;-146.17;100.00
52625;BME280;38519;52.540;13.410;2023-08-30T08:55:29;45505.66;;;-146.17;100.00
52625;BME280;38519;52.540;13.410;2023-08-30T08:57:56;45505.66;;;-146.17;100.00
52625;BME280;38519;52.540;13.410;2023-08-30T09:00:22;45485.91;;;-146.17;100.00
52625;BME280;38519;52.540;13.410;2023-08-30T09:02:47;45472.06;;;-146.17;100.00
52625;BME280;38519;52.540;13.410;2023-08-30T09:05:15;45501.72;;;-146.17;100.00
52625;BME280;38519;52.540;13.410;2023-08-30T09:07:40;45495.78;;;-146.17;100.00
52625;BME280;38519;52.540;13.410;2023-08-30T09:10:08;45448.34;;;-146.17;100.00
52625;BME280;38519;52.540;13.410;2023-08-30T09:12:34;45472.06;;;-146.17;100.00
52625;BME280;38519;52.540;13.410;2023-08-30T09:15:00;45533.31;;;-146.17;100.00
52625;BME280;38519;52.540;13.410;2023-08-30T09:17:37;45466.13;;;-146.17;100.00
52625;BME280;38519;52.540;13.410;2023-08-30T09:20:09;45454.28;;;-146.17;100.00
52625;BME280;38519;52.540;13.410;2023-08-30T09:22:37;45468.09;;;-146.17;100.00
52625;BME280;38519;52.540;13.410;2023-08-30T09:25:03;45478.00;;;-146.17;100.00
52625;BME280;38519;52.540;13.410;2023-08-30T09:27:35;45489.84;;;-146.17;100.00
52625;BME280;38519;52.540;13.410;2023-08-30T09:30:01;45474.03;;;-146.17;100.00
52625;BME280;38519;52.540;13.410;2023-08-30T09:32:31;45497.75;;;-146.17;100.00
52625;BME280;38519;52.540;13.410;2023-08-30T09:34:59;45454.28;;;-146.17;100.00
52625;BME280;38519;52.540;13.410;2023-08-30T09:37:29;45454.28;;;-146.17;100.00
52625;BME280;38519;52.540;13.410;2023-08-30T09:39:54;45470.09;;;-146.17;100.00
52625;BME280;38519;52.540;13.410;2023-08-30T09:42:19;45462.19;;;-146.17;100.00
52625;BME280;38519;52.540;13.410;2023-08-30T09:44:45;45489.84;;;-146.17;100.00
52625;BME280;38519;52.540;13.410;2023-08-30T09:47:12;45478.00;;;-146.17;100.00
52625;BME280;38519;52.540;13.410;2023-08-30T09:49:47;45454.28;;;-146.17;100.00
52625;BME280;38519;52.540;13.410;2023-08-30T09:52:16;45454.28;;;-146.17;100.00
52625;BME280;38519;52.540;13.410;2023-08-30T09:54:42;45485.91;;;-146.17;100.00
52625;BME280;38519;52.540;13.410;2023-08-30T09:57:09;45460.19;;;-146.17;100.00
52625;BME280;38519;52.540;13.410;2023-08-30T09:59:36;45478.00;;;-146.17;100.00
52625;BME280;38519;52.540;13.410;2023-08-30T10:02:03;45450.31;;;-146.17;100.00
52625;BME280;38519;52.540;13.410;2023-08-30T10:04:29;45438.47;;;-146.17;100.00
52625;BME280;38519;52.540;13.410;2023-08-30T10:06:56;45396.97;;;-146.17;99.20
52625;BME280;38519;52.540;13.410;2023-08-30T10:09:22;45410.78;;;-146.17;95.18
52625;BME280;38519;52.540;13.410;2023-08-30T10:11:49;45400.91;;;-146.17;92.93
52625;BME280;38519;52.540;13.410;2023-08-30T10:14:15;45428.59;;;-146.17;92.72
52625;BME280;38519;52.540;13.410;2023-08-30T10:16:48;45400.91;;;-146.17;88.13
52625;BME280;38519;52.540;13.410;2023-08-30T10:19:17;45424.63;;;-146.17;88.93
52625;BME280;38519;52.540;13.410;2023-08-30T10:22:20;45424.63;;;-146.17;87.96
52625;BME280;38519;52.540;13.410;2023-08-30T10:24:44;45430.56;;;-146.17;87.84
52625;BME280;38519;52.540;13.410;2023-08-30T10:27:11;45373.25;;;-146.17;87.39
52625;BME280;38519;52.540;13.410;2023-08-30T10:29:39;45410.78;;;-146.17;88.65
52625;BME280;38519;52.540;13.410;2023-08-30T10:32:06;45446.38;;;-146.17;87.89
52625;BME280;38519;52.540;13.410;2023-08-30T10:34:35;45420.69;;;-146.17;89.04
52625;BME280;38519;52.540;13.410;2023-08-30T10:37:02;45396.97;;;-146.17;89.22
52625;BME280;38519;52.540;13.410;2023-08-30T10:39:38;45406.84;;;-146.17;86.87
52625;BME280;38519;52.540;13.410;2023-08-30T10:42:09;45408.81;;;-146.17;84.29
52625;BME280;38519;52.540;13.410;2023-08-30T10:44:35;45430.56;;;-146.17;85.42
52625;BME280;38519;52.540;13.410;2023-08-30T10:47:01;45406.84;;;-146.17;85.79
52625;BME280;38519;52.540;13.410;2023-08-30T10:49:28;45383.13;;;-146.17;85.84
52625;BME280;38519;52.540;13.410;2023-08-30T10:51:57;45406.84;;;-146.17;84.75
52625;BME280;38519;52.540;13.410;2023-08-30T10:54:23;45373.25;;;-146.17;87.05
52625;BME280;38519;52.540;13.410;2023-08-30T10:59:20;45375.22;;;-146.17;87.72
52625;BME280;38519;52.540;13.410;2023-08-30T11:01:46;45375.22;;;-146.17;86.58
52625;BME280;38519;52.540;13.410;2023-08-30T11:04:12;45377.19;;;-146.17;88.19
52625;BME280;38519;52.540;13.410;2023-08-30T11:06:39;45371.28;;;-146.17;85.47
52625;BME280;38519;52.540;13.410;2023-08-30T11:09:04;45373.25;;;-146.17;86.49
52625;BME280;38519;52.540;13.410;2023-08-30T11:11:30;45381.16;;;-146.17;88.21
52625;BME280;38519;52.540;13.410;2023-08-30T11:14:03;45353.47;;;-146.17;84.29
52625;BME280;38519;52.540;13.410;2023-08-30T11:16:29;45351.50;;;-146.17;88.28
52625;BME280;38519;52.540;13.410;2023-08-30T11:18:54;45367.31;;;-146.17;89.55
52625;BME280;38519;52.540;13.410;2023-08-30T11:21:19;45335.69;;;-146.17;87.61
52625;BME280;38519;52.540;13.410;2023-08-30T11:23:45;45347.56;;;-146.17;88.84
52625;BME280;38519;52.540;13.410;2023-08-30T11:26:10;45359.41;;;-146.17;89.94
52625;BME280;38519;52.540;13.410;2023-08-30T11:28:37;45367.31;;;-146.17;88.21
52625;BME280;38519;52.540;13.410;2023-08-30T11:31:06;45394.97;;;-146.17;88.83
52625;BME280;38519;52.540;13.410;2023-08-30T11:33:32;45351.50;;;-146.17;88.12
52625;BME280;38519;52.540;13.410;2023-08-30T11:35:57;45315.94;;;-146.17;89.26
52625;BME280;38519;52.540;13.410;2023-08-30T11:38:23;45353.47;;;-146.17;86.86
52625;BME280;38519;52.540;13.410;2023-08-30T11:40:48;45355.47;;;-146.17;86.01
52625;BME280;38519;52.540;13.410;2023-08-30T11:43:14;45355.47;;;-146.17;85.86
52625;BME280;38519;52.540;13.410;2023-08-30T11:45:40;45321.88;;;-146.17;87.57
52625;BME280;38519;52.540;13.410;2023-08-30T11:48:05;45351.50;;;-146.17;86.80
52625;BME280;38519;52.540;13.410;2023-08-30T11:50:31;45367.31;;;-146.17;87.28
52625;BME280;38519;52.540;13.410;2023-08-30T11:52:56;45327.78;;;-146.17;88.13
52625;BME280;38519;52.540;13.410;2023-08-30T11:55:22;45351.50;;;-146.17;88.65
52625;BME280;38519;52.540;13.410;2023-08-30T11:57:51;45363.38;;;-146.17;88.64
52625;BME280;38519;52.540;13.410;2023-08-30T12:00:18;45369.28;;;-146.17;88.81
52625;BME280;38519;52.540;13.410;2023-08-30T12:02:44;45349.53;;;-146.17;86.49
52625;BME280;38519;52.540;13.410;2023-08-30T12:05:11;45331.75;;;-146.17;88.47
52625;BME280;38519;52.540;13.410;2023-08-30T12:07:36;45361.38;;;-146.17;87.36
52625;BME280;38519;52.540;13.410;2023-08-30T12:10:05;45373.25;;;-146.17;88.01
52625;BME280;38519;52.540;13.410;2023-08-30T12:12:30;45331.75;;;-146.17;88.54
52625;BME280;38519;52.540;13.410;2023-08-30T12:14:56;45339.66;;;-146.17;89.21
52625;BME280;38519;52.540;13.410;2023-08-30T12:17:22;45315.94;;;-146.17;87.19
52625;BME280;38519;52.540;13.410;2023-08-30T12:19:54;45339.66;;;-146.17;86.59
52625;BME280;38519;52.540;13.410;2023-08-30T12:22:20;45313.97;;;-146.17;86.58
52625;BME280;38519;52.540;13.410;2023-08-30T12:24:45;45331.75;;;-146.17;87.07
52625;BME280;38519;52.540;13.410;2023-08-30T12:27:10;45319.88;;;-146.17;87.05
52625;BME280;38519;52.540;13.410;2023-08-30T12:29:36;45367.31;;;-146.17;91.27
52625;BME280;38519;52.540;13.410;2023-08-30T12:32:02;45353.47;;;-146.17;88.01